Terminal Aerodrome Forecast
Issued by NWS Blacksburg, VA

Current Version | Previous Version | Text Only | Print | Product List | Glossary Off
Versions: 1 2 3 4 5 6 7 8 9 10 11 12 13 14 15 16 17 18 19 20 21 22 23 24 25 26 27 28 29 30 31 32 33 34 35 36 37 38 39 40 41 42

073
FTUS41 KRNK 301736
TAFBLF
TAF
KBLF 301736Z 3018/0118 15009G16KT P6SM -SHRA SCT030 OVC100
     FM302300 13009KT 5SM -SHRA BR OVC015
     FM010500 16009KT 4SM SHRA BR OVC009
     FM011000 18008KT 4SM -SHRA BR OVC015
     FM011600 22008KT P6SM -SHRA OVC035=

USA.gov is the U.S. government's official web portal to all federal, state and local government web resources and services.